createdAt,value
2019-05-21T00:01:02.775Z,53.83
2019-05-21T00:03:32.388Z,53.27
2019-05-21T00:06:02.106Z,50.20
2019-05-21T00:08:31.675Z,45.63
2019-05-21T00:11:01.450Z,45.97
2019-05-21T00:13:31.097Z,46.40
2019-05-21T00:16:01.139Z,44.57
2019-05-21T00:18:30.750Z,45.03
2019-05-21T00:21:00.514Z,46.87
2019-05-21T00:23:30.099Z,48.67
2019-05-21T00:25:59.767Z,44.93
2019-05-21T00:28:38.285Z,44.63
2019-05-21T00:31:25.665Z,46.57
2019-05-21T00:34:12.835Z,43.87
2019-05-21T00:37:01.686Z,42.43
2019-05-21T00:39:48.910Z,44.67
2019-05-21T00:42:20.431Z,43.73
2019-05-21T00:44:50.017Z,39.00
2019-05-21T00:47:20.842Z,43.23
2019-05-21T00:49:50.549Z,40.77
2019-05-21T00:52:20.217Z,38.63
2019-05-21T00:54:49.810Z,40.07
2019-05-21T00:57:19.502Z,41.07
2019-05-21T00:59:49.141Z,41.70
2019-05-21T01:02:18.786Z,35.03
2019-05-21T01:05:00.222Z,41.43
2019-05-21T01:07:19.914Z,38.77
2019-05-21T01:09:49.514Z,39.53
2019-05-21T01:12:19.142Z,37.10
2019-05-21T01:14:48.792Z,35.17
2019-05-21T01:17:18.382Z,33.60
2019-05-21T01:19:48.115Z,36.87
2019-05-21T01:22:17.758Z,34.90
2019-05-21T01:24:47.331Z,35.87
2019-05-21T01:27:17.079Z,36.83
2019-05-21T01:29:46.674Z,33.10
2019-05-21T01:32:16.396Z,32.13
2019-05-21T01:34:46.029Z,31.47
2019-05-21T01:37:15.735Z,30.37
2019-05-21T01:39:45.377Z,30.13
2019-05-21T01:42:15.007Z,29.47
2019-05-21T01:44:44.583Z,29.47
2019-05-21T01:47:14.735Z,30.60
2019-05-21T01:49:44.311Z,28.47
2019-05-21T01:52:14.212Z,30.73
2019-05-21T01:54:43.840Z,32.30
2019-05-21T01:57:13.555Z,26.50
2019-05-21T01:59:43.214Z,26.57
2019-05-21T02:02:13.054Z,31.60
2019-05-21T02:04:42.619Z,29.50
2019-05-21T02:07:12.339Z,29.70
2019-05-21T02:10:00.176Z,27.67
2019-05-21T02:12:29.900Z,25.43
2019-05-21T02:14:59.500Z,31.83
2019-05-21T02:17:29.852Z,28.90
2019-05-21T02:20:00.239Z,29.17
2019-05-21T02:22:30.433Z,29.90
2019-05-21T02:25:00.111Z,26.87
2019-05-21T02:27:29.797Z,33.90
2019-05-21T02:29:59.482Z,32.87
2019-05-21T02:32:29.034Z,25.00
2019-05-21T02:34:58.827Z,27.30
2019-05-21T02:37:28.539Z,22.53
2019-05-21T02:39:58.507Z,21.30
2019-05-21T02:42:28.135Z,22.83
2019-05-21T02:44:57.970Z,24.10
2019-05-21T02:47:27.600Z,20.40
2019-05-21T02:49:57.313Z,19.23
2019-05-21T02:52:26.899Z,20.30
2019-05-21T02:54:56.693Z,24.13
2019-05-21T02:57:37.864Z,19.00
2019-05-21T03:00:09.660Z,18.37
2019-05-21T03:02:39.544Z,16.87
2019-05-21T03:05:09.692Z,19.53
2019-05-21T03:07:39.268Z,18.00
2019-05-21T03:10:08.956Z,18.60
2019-05-21T03:12:38.599Z,18.37
2019-05-21T03:15:08.489Z,15.60
2019-05-21T03:17:38.139Z,15.10
2019-05-21T03:20:07.917Z,14.13
2019-05-21T03:22:37.616Z,16.30
2019-05-21T03:25:13.485Z,14.73
2019-05-21T03:27:43.156Z,16.10
2019-05-21T03:30:13.073Z,14.50
2019-05-21T03:32:42.764Z,14.77
2019-05-21T03:35:12.561Z,17.33
2019-05-21T03:37:42.137Z,15.13
2019-05-21T03:40:11.997Z,14.50
2019-05-21T03:42:41.576Z,17.63
2019-05-21T03:45:11.639Z,15.50
2019-05-21T03:47:41.195Z,14.20
2019-05-21T03:50:10.997Z,18.27
2019-05-21T03:52:40.771Z,15.30
2019-05-21T03:55:10.559Z,15.93
2019-05-21T03:57:40.243Z,16.93
2019-05-21T04:00:10.444Z,17.10
2019-05-21T04:02:39.991Z,15.53
2019-05-21T04:05:10.167Z,14.80
2019-05-21T04:07:39.811Z,16.17
2019-05-21T04:10:14.337Z,15.73
2019-05-21T04:12:47.036Z,17.37
2019-05-21T04:15:19.081Z,16.80
2019-05-21T04:17:57.930Z,14.70
2019-05-21T04:20:27.623Z,18.63
2019-05-21T04:22:57.345Z,20.23
2019-05-21T04:25:27.128Z,15.23
2019-05-21T04:27:56.818Z,18.40
2019-05-21T04:30:26.696Z,15.73
2019-05-21T04:32:56.313Z,16.20
2019-05-21T04:35:26.226Z,17.20
2019-05-21T04:37:55.915Z,16.53
2019-05-21T04:40:25.599Z,16.73
2019-05-21T04:42:55.197Z,14.97
2019-05-21T04:45:24.889Z,15.83
2019-05-21T04:47:54.520Z,18.93
2019-05-21T04:50:24.206Z,16.00
2019-05-21T04:52:53.989Z,15.20
2019-05-21T04:55:23.602Z,16.33
2019-05-21T04:57:53.346Z,16.03
2019-05-21T05:00:24.276Z,14.77
2019-05-21T05:02:53.860Z,13.27
2019-05-21T05:05:23.718Z,13.80
2019-05-21T05:07:53.399Z,11.93
2019-05-21T05:10:23.089Z,12.40
2019-05-21T05:12:52.814Z,12.10
2019-05-21T05:15:22.523Z,16.27
2019-05-21T05:17:53.291Z,16.13
2019-05-21T05:20:22.948Z,14.10
2019-05-21T05:22:52.577Z,14.83
2019-05-21T05:25:22.321Z,14.27
2019-05-21T05:28:11.063Z,17.77
2019-05-21T05:30:40.748Z,14.70
2019-05-21T05:33:10.436Z,13.70
2019-05-21T05:35:40.177Z,14.50
2019-05-21T05:38:09.756Z,13.77
2019-05-21T05:40:39.543Z,13.63
2019-05-21T05:43:09.345Z,14.57
2019-05-21T05:45:39.006Z,15.83
2019-05-21T05:48:08.695Z,13.63
2019-05-21T05:50:40.348Z,11.97
2019-05-21T05:53:09.984Z,11.63
2019-05-21T05:55:39.689Z,14.00
2019-05-21T05:58:09.283Z,12.00
2019-05-21T06:00:38.963Z,13.63
2019-05-21T06:03:08.564Z,11.40
2019-05-21T06:05:38.381Z,11.90
2019-05-21T06:08:08.088Z,14.23
2019-05-21T06:10:40.107Z,13.27
2019-05-21T06:13:09.032Z,10.40
2019-05-21T06:15:38.857Z,13.17
2019-05-21T06:18:08.494Z,11.23
2019-05-21T06:20:38.291Z,9.67
2019-05-21T06:23:08.069Z,10.30
2019-05-21T06:25:37.958Z,9.63
2019-05-21T06:28:07.619Z,11.37
2019-05-21T06:30:37.303Z,11.73
2019-05-21T06:33:07.033Z,10.60
2019-05-21T06:35:36.724Z,10.23
2019-05-21T06:38:17.045Z,10.63
2019-05-21T06:40:38.580Z,10.03
2019-05-21T06:43:08.364Z,8.53
2019-05-21T06:45:37.952Z,10.07
2019-05-21T06:48:07.660Z,10.50
2019-05-21T06:50:37.791Z,9.87
2019-05-21T06:53:07.775Z,10.07
2019-05-21T06:55:37.499Z,9.80
2019-05-21T06:58:07.120Z,9.77
2019-05-21T07:00:36.746Z,6.97
2019-05-21T07:03:06.563Z,8.70
2019-05-21T07:05:36.255Z,6.70
2019-05-21T07:08:05.957Z,6.63
2019-05-21T07:10:35.539Z,6.93
2019-05-21T07:13:05.469Z,7.93
2019-05-21T07:15:35.107Z,6.63
2019-05-21T07:18:04.947Z,6.77
2019-05-21T07:20:34.631Z,8.17
2019-05-21T07:23:04.495Z,8.90
2019-05-21T07:25:34.132Z,8.80
2019-05-21T07:28:03.914Z,6.03
2019-05-21T07:30:33.501Z,7.27
2019-05-21T07:33:03.354Z,7.10
2019-05-21T07:35:33.152Z,7.17
2019-05-21T07:38:02.947Z,6.37
2019-05-21T07:40:32.547Z,7.23
2019-05-21T07:43:02.392Z,6.03
2019-05-21T07:45:31.974Z,5.67
2019-05-21T07:48:01.706Z,7.83
2019-05-21T07:50:31.301Z,6.60
2019-05-21T07:53:01.548Z,7.47
2019-05-21T07:55:31.187Z,7.87
2019-05-21T07:58:01.470Z,7.60
2019-05-21T08:00:31.040Z,9.80
2019-05-21T08:03:01.255Z,9.70
2019-05-21T08:05:30.884Z,6.53
2019-05-21T08:08:00.522Z,5.33
2019-05-21T08:10:30.227Z,6.40
2019-05-21T08:12:59.911Z,5.03
2019-05-21T08:15:29.548Z,5.90
2019-05-21T08:18:02.317Z,5.87
2019-05-21T08:20:31.913Z,6.30
2019-05-21T08:23:02.256Z,5.53
2019-05-21T08:25:31.919Z,6.43
2019-05-21T08:28:01.740Z,7.33
2019-05-21T08:30:31.307Z,5.70
2019-05-21T08:33:01.132Z,6.13
2019-05-21T08:35:30.805Z,4.30
2019-05-21T08:38:00.517Z,6.83
2019-05-21T08:40:30.707Z,3.77
2019-05-21T08:43:00.492Z,4.23
2019-05-21T08:45:30.339Z,5.97
2019-05-21T08:48:00.134Z,3.80
2019-05-21T08:50:30.191Z,14.73
2019-05-21T08:52:59.842Z,5.27
2019-05-21T08:55:29.701Z,4.77
2019-05-21T08:58:07.015Z,5.33
2019-05-21T09:00:30.972Z,3.87
2019-05-21T09:03:00.676Z,7.30
2019-05-21T09:05:30.469Z,4.70
2019-05-21T09:08:00.218Z,4.27
2019-05-21T09:10:30.049Z,5.67
2019-05-21T09:12:59.682Z,5.33
2019-05-21T09:15:29.335Z,6.40
2019-05-21T09:17:58.931Z,5.13
2019-05-21T09:20:28.714Z,4.37
2019-05-21T09:22:58.403Z,7.93
2019-05-21T09:25:28.126Z,6.57
2019-05-21T09:27:57.718Z,7.50
2019-05-21T09:30:27.427Z,6.20
2019-05-21T09:32:57.053Z,6.80
2019-05-21T09:35:26.842Z,7.23
2019-05-21T09:37:56.426Z,5.10
2019-05-21T09:40:26.112Z,6.10
2019-05-21T09:42:55.704Z,7.23
2019-05-21T09:45:25.706Z,6.93
2019-05-21T09:47:55.381Z,9.90
2019-05-21T09:50:25.009Z,5.33
2019-05-21T09:52:54.710Z,4.23
2019-05-21T09:55:24.600Z,5.30
2019-05-21T09:58:05.947Z,4.40
2019-05-21T10:01:00.520Z,7.60
2019-05-21T10:03:31.764Z,6.93
2019-05-21T10:06:02.741Z,5.43
2019-05-21T10:08:32.390Z,6.90
2019-05-21T10:11:02.130Z,7.90
2019-05-21T10:13:31.927Z,4.47
2019-05-21T10:16:01.935Z,5.10
2019-05-21T10:18:31.499Z,5.30
2019-05-21T10:21:01.256Z,4.53
2019-05-21T10:23:31.021Z,5.03
2019-05-21T10:26:01.327Z,4.83
2019-05-21T10:28:30.918Z,7.07
2019-05-21T10:31:00.646Z,6.33
2019-05-21T10:33:30.223Z,4.77
2019-05-21T10:36:00.034Z,5.67
2019-05-21T10:38:29.716Z,5.07
2019-05-21T10:40:59.428Z,6.60
2019-05-21T10:43:29.035Z,4.93
2019-05-21T10:45:58.784Z,3.63
2019-05-21T10:48:28.416Z,4.10
2019-05-21T10:50:58.060Z,4.60
2019-05-21T10:53:27.705Z,6.10
2019-05-21T10:55:57.405Z,4.97
2019-05-21T10:58:27.190Z,3.90
2019-05-21T11:01:02.741Z,3.60
2019-05-21T11:04:09.618Z,5.43
2019-05-21T11:06:40.085Z,4.83
2019-05-21T11:09:15.487Z,3.50
2019-05-21T11:11:45.249Z,6.13
2019-05-21T11:14:15.264Z,4.10
2019-05-21T11:16:45.205Z,4.83
2019-05-21T11:19:14.811Z,4.43
2019-05-21T11:21:44.719Z,3.50
2019-05-21T11:24:14.935Z,4.87
2019-05-21T11:26:44.658Z,6.47
2019-05-21T11:29:14.283Z,4.20
2019-05-21T11:31:56.364Z,5.03
2019-05-21T11:34:15.731Z,5.90
2019-05-21T11:36:45.316Z,3.83
2019-05-21T11:39:15.003Z,3.40
2019-05-21T11:41:44.772Z,6.27
2019-05-21T11:44:17.067Z,3.97
2019-05-21T11:46:46.661Z,4.80
2019-05-21T11:49:16.431Z,5.20
2019-05-21T11:51:45.996Z,4.40
2019-05-21T11:54:19.635Z,4.53
2019-05-21T11:56:49.210Z,6.63
2019-05-21T11:59:19.056Z,7.33
2019-05-21T12:01:49.058Z,5.63
2019-05-21T12:04:19.091Z,5.73
2019-05-21T12:06:48.727Z,12.17
2019-05-21T12:09:18.635Z,7.23
2019-05-21T12:11:48.291Z,6.30
2019-05-21T12:14:18.909Z,7.47
2019-05-21T12:16:48.764Z,44.10
2019-05-21T12:19:18.483Z,11.73
2019-05-21T12:21:48.219Z,44.65
2019-05-21T12:24:19.334Z,21.30
2019-05-21T12:26:48.973Z,10.00
2019-05-21T12:29:18.658Z,9.28
2019-05-21T12:31:48.287Z,11.27
2019-05-21T12:34:21.428Z,15.73
2019-05-21T12:36:51.123Z,26.77
2019-05-21T12:39:21.050Z,23.67
2019-05-21T12:41:50.756Z,14.50
2019-05-21T12:44:21.975Z,12.10
2019-05-21T12:46:51.656Z,15.10
2019-05-21T12:49:21.581Z,15.20
2019-05-21T12:51:51.396Z,9.17
2019-05-21T12:54:22.156Z,5.77
2019-05-21T12:56:51.871Z,9.70
2019-05-21T12:59:21.747Z,8.63
2019-05-21T13:01:51.312Z,5.67
2019-05-21T13:04:22.227Z,6.97
2019-05-21T13:06:51.892Z,5.57
2019-05-21T13:09:32.455Z,6.37
2019-05-21T13:11:53.023Z,4.00
2019-05-21T13:14:23.494Z,6.67
2019-05-21T13:16:53.314Z,5.40
2019-05-21T13:19:23.215Z,5.23
2019-05-21T13:21:52.939Z,4.20
2019-05-21T13:24:23.431Z,4.73
2019-05-21T13:26:53.100Z,4.77
2019-05-21T13:29:22.818Z,4.30
2019-05-21T13:31:52.525Z,5.13
2019-05-21T13:34:23.140Z,7.50
2019-05-21T13:36:53.450Z,4.70
2019-05-21T13:39:25.593Z,53.83
2019-05-21T13:41:54.635Z,38.60
2019-05-21T13:44:25.724Z,14.63
2019-05-21T13:46:55.379Z,36.93
2019-05-21T13:49:25.207Z,12.98
2019-05-21T13:51:54.934Z,8.03
2019-05-21T13:54:25.412Z,6.10
2019-05-21T13:56:55.229Z,6.43
2019-05-21T13:59:25.208Z,21.53
2019-05-21T14:01:55.146Z,12.97
2019-05-21T14:04:25.802Z,7.83
2019-05-21T14:06:55.789Z,5.60
2019-05-21T14:09:25.782Z,8.47
2019-05-21T14:11:56.013Z,28.60
2019-05-21T14:14:27.171Z,11.50
2019-05-21T14:16:57.372Z,14.90
2019-05-21T14:19:27.392Z,9.43
2019-05-21T14:21:57.051Z,13.67
2019-05-21T14:24:27.961Z,9.20
2019-05-21T14:26:57.731Z,9.00
2019-05-21T14:29:27.663Z,6.83
2019-05-21T14:31:57.262Z,13.90
2019-05-21T14:34:27.819Z,6.20
2019-05-21T14:36:57.555Z,9.50
2019-05-21T14:39:27.483Z,6.37
2019-05-21T14:41:57.208Z,4.93
2019-05-21T14:44:27.503Z,6.17
2019-05-21T14:46:57.369Z,5.50
2019-05-21T14:49:27.196Z,7.17
2019-05-21T14:51:56.876Z,6.83
2019-05-21T14:54:27.350Z,7.60
2019-05-21T14:56:57.245Z,6.80
2019-05-21T14:59:26.919Z,24.83
2019-05-21T15:01:56.817Z,13.37
2019-05-21T15:04:28.948Z,18.10
2019-05-21T15:06:59.057Z,11.43
2019-05-21T15:09:29.745Z,17.30
2019-05-21T15:11:59.435Z,50.93
2019-05-21T15:14:30.182Z,20.40
2019-05-21T15:16:59.969Z,11.70
2019-05-21T15:19:29.749Z,19.93
2019-05-21T15:21:59.351Z,12.63
2019-05-21T15:24:33.464Z,13.67
2019-05-21T15:27:02.216Z,13.57
2019-05-21T15:29:32.040Z,10.23
2019-05-21T15:32:01.692Z,15.17
2019-05-21T15:34:32.284Z,10.17
2019-05-21T15:37:01.930Z,9.90
2019-05-21T15:39:32.012Z,7.47
2019-05-21T15:42:01.698Z,9.97
2019-05-21T15:44:32.500Z,5.03
2019-05-21T15:47:02.463Z,10.10
2019-05-21T15:49:36.483Z,6.33
2019-05-21T15:52:03.841Z,4.53
2019-05-21T15:54:34.236Z,5.53
2019-05-21T15:57:04.165Z,7.90
2019-05-21T15:59:33.803Z,80.83
2019-05-21T16:02:03.594Z,39.83
2019-05-21T16:04:34.144Z,40.23
2019-05-21T16:07:04.066Z,66.17
2019-05-21T16:09:33.759Z,11.43
2019-05-21T16:12:03.506Z,20.00
2019-05-21T16:14:33.649Z,43.60
2019-05-21T16:17:03.387Z,12.87
2019-05-21T16:19:33.013Z,10.37
2019-05-21T16:22:02.802Z,6.00
2019-05-21T16:24:32.792Z,6.40
2019-05-21T16:27:02.512Z,4.60
2019-05-21T16:29:32.123Z,4.67
2019-05-21T16:32:01.933Z,4.87
2019-05-21T16:34:32.804Z,5.73
2019-05-21T16:37:02.574Z,4.73
2019-05-21T16:39:32.290Z,5.77
2019-05-21T16:42:01.879Z,4.43
2019-05-21T16:44:31.473Z,3.90
2019-05-21T16:47:01.277Z,6.53
2019-05-21T16:49:30.895Z,6.67
2019-05-21T16:52:00.983Z,7.10
2019-05-21T16:54:30.510Z,6.40
2019-05-21T16:57:00.203Z,4.67
2019-05-21T16:59:29.765Z,6.10
2019-05-21T17:01:59.995Z,6.43
2019-05-21T17:04:29.786Z,7.03
2019-05-21T17:06:59.487Z,6.50
2019-05-21T17:09:29.214Z,5.90
2019-05-21T17:12:00.452Z,7.00
2019-05-21T17:14:30.255Z,5.60
2019-05-21T17:16:59.956Z,6.20
2019-05-21T17:19:29.519Z,6.17
2019-05-21T17:21:59.482Z,5.97
2019-05-21T17:24:29.148Z,7.50
2019-05-21T17:26:58.853Z,6.27
2019-05-21T17:29:28.490Z,6.03
2019-05-21T17:31:58.211Z,6.57
2019-05-21T17:34:27.822Z,7.13
2019-05-21T17:36:57.602Z,7.87
2019-05-21T17:39:27.428Z,6.03
2019-05-21T17:41:57.144Z,6.03
2019-05-21T17:44:26.779Z,7.43
2019-05-21T17:46:56.724Z,8.80
2019-05-21T17:49:26.498Z,10.33
2019-05-21T17:51:56.129Z,7.37
2019-05-21T17:54:25.808Z,9.77
2019-05-21T17:56:55.637Z,7.63
2019-05-21T17:59:25.408Z,7.70
2019-05-21T18:01:55.476Z,8.77
2019-05-21T18:04:25.730Z,9.00
2019-05-21T18:06:55.990Z,7.50
2019-05-21T18:09:26.264Z,8.37
2019-05-21T18:11:56.228Z,10.10
2019-05-21T18:14:25.805Z,7.30
2019-05-21T18:16:55.388Z,6.73
2019-05-21T18:19:25.213Z,7.70
2019-05-21T18:21:54.964Z,8.00
2019-05-21T18:24:24.814Z,8.03
2019-05-21T18:26:54.409Z,10.00
2019-05-21T18:29:24.251Z,12.33
2019-05-21T18:31:53.815Z,8.60
2019-05-21T18:34:23.708Z,9.50
2019-05-21T18:36:53.342Z,12.00
2019-05-21T18:39:23.810Z,13.53
2019-05-21T18:41:53.523Z,11.17
2019-05-21T18:44:23.319Z,11.67
2019-05-21T18:46:52.916Z,11.77
2019-05-21T18:49:22.894Z,14.93
2019-05-21T18:51:52.750Z,14.17
2019-05-21T18:54:22.660Z,13.17
2019-05-21T18:56:52.586Z,10.53
2019-05-21T18:59:22.402Z,14.43
2019-05-21T19:01:52.106Z,13.50
2019-05-21T19:04:21.920Z,14.80
2019-05-21T19:06:51.565Z,13.07
2019-05-21T19:09:21.281Z,19.00
2019-05-21T19:11:51.017Z,14.03
2019-05-21T19:14:20.864Z,20.70
2019-05-21T19:16:50.595Z,18.93
2019-05-21T19:19:20.676Z,22.00
2019-05-21T19:21:50.325Z,16.13
2019-05-21T19:24:19.959Z,10.93
2019-05-21T19:26:49.546Z,13.67
2019-05-21T19:29:20.210Z,10.90
2019-05-21T19:31:49.827Z,11.17
2019-05-21T19:34:19.593Z,13.40
2019-05-21T19:36:49.373Z,11.53
2019-05-21T19:39:19.537Z,13.40
2019-05-21T19:41:49.089Z,12.00
2019-05-21T19:44:19.009Z,14.90
2019-05-21T19:46:48.703Z,13.57
2019-05-21T19:49:18.609Z,14.33
2019-05-21T19:51:48.171Z,15.43
2019-05-21T19:54:18.343Z,15.00
2019-05-21T19:56:48.080Z,14.20
2019-05-21T19:59:18.054Z,15.90
2019-05-21T20:01:48.112Z,14.73
2019-05-21T20:04:17.996Z,14.30
2019-05-21T20:06:47.619Z,16.13
2019-05-21T20:09:19.172Z,20.77
2019-05-21T20:11:48.983Z,16.27
2019-05-21T20:14:18.787Z,15.90
2019-05-21T20:16:48.595Z,16.60
2019-05-21T20:19:19.458Z,17.00
2019-05-21T20:21:49.551Z,16.47
2019-05-21T20:24:19.383Z,15.10
2019-05-21T20:26:50.287Z,15.97
2019-05-21T20:29:20.526Z,15.70
2019-05-21T20:31:50.834Z,14.67
2019-05-21T20:34:20.590Z,17.97
2019-05-21T20:36:50.189Z,16.80
2019-05-21T20:39:21.438Z,14.57
2019-05-21T20:41:51.836Z,17.00
2019-05-21T20:44:21.781Z,15.10
2019-05-21T20:46:51.458Z,14.13
2019-05-21T20:49:22.080Z,16.37
2019-05-21T20:51:52.076Z,15.07
2019-05-21T20:54:24.059Z,16.13
2019-05-21T20:56:54.750Z,18.67
2019-05-21T20:59:24.528Z,14.80
2019-05-21T21:01:54.218Z,16.83
2019-05-21T21:04:24.243Z,19.27
2019-05-21T21:06:54.701Z,17.03
2019-05-21T21:09:24.750Z,16.93
2019-05-21T21:11:57.038Z,13.97
2019-05-21T21:14:28.462Z,19.73
2019-05-21T21:16:59.374Z,16.47
2019-05-21T21:19:29.476Z,16.67
2019-05-21T21:22:03.384Z,16.60
2019-05-21T21:24:33.092Z,17.47
2019-05-21T21:27:04.775Z,17.57
2019-05-21T21:29:35.371Z,16.83
2019-05-21T21:32:05.310Z,17.20
2019-05-21T21:34:34.908Z,16.23
2019-05-21T21:37:05.419Z,19.53
2019-05-21T21:39:35.230Z,18.80
2019-05-21T21:42:06.998Z,20.53
2019-05-21T21:44:37.595Z,19.40
2019-05-21T21:47:07.731Z,18.97
2019-05-21T21:49:39.235Z,19.87
2019-05-21T21:52:09.637Z,17.70
2019-05-21T21:54:39.246Z,18.37
2019-05-21T21:57:09.768Z,18.90
2019-05-21T21:59:39.434Z,16.53
2019-05-21T22:02:15.940Z,19.23
2019-05-21T22:04:45.937Z,18.97
2019-05-21T22:07:16.030Z,16.97
2019-05-21T22:09:46.905Z,16.23
2019-05-21T22:12:20.398Z,17.77
2019-05-21T22:14:52.623Z,16.73
2019-05-21T22:17:22.675Z,16.03
2019-05-21T22:19:52.371Z,17.67
2019-05-21T22:22:22.495Z,16.73
2019-05-21T22:24:52.393Z,15.00
2019-05-21T22:27:22.148Z,15.07
2019-05-21T22:29:51.835Z,14.93
2019-05-21T22:32:21.714Z,16.83
2019-05-21T22:34:51.526Z,19.07
2019-05-21T22:37:23.641Z,17.77
2019-05-21T22:39:53.235Z,16.60
2019-05-21T22:42:23.406Z,17.43
2019-05-21T22:45:06.870Z,18.20
2019-05-21T22:47:25.745Z,16.83
2019-05-21T22:49:55.393Z,15.30
2019-05-21T22:52:25.595Z,18.13
2019-05-21T22:54:55.242Z,16.43
2019-05-21T22:57:26.259Z,17.77
2019-05-21T22:59:56.079Z,21.50
2019-05-21T23:02:30.432Z,17.47
2019-05-21T23:05:00.266Z,19.50
2019-05-21T23:07:30.303Z,18.07
2019-05-21T23:10:00.141Z,21.30
2019-05-21T23:12:30.535Z,17.90
2019-05-21T23:15:00.380Z,27.73
2019-05-21T23:17:30.390Z,20.07
2019-05-21T23:20:01.256Z,23.10
2019-05-21T23:22:31.732Z,22.13
2019-05-21T23:25:02.379Z,20.73
2019-05-21T23:27:32.177Z,21.17
2019-05-21T23:30:01.763Z,18.97
2019-05-21T23:32:31.584Z,20.27
2019-05-21T23:35:01.983Z,21.90
2019-05-21T23:37:32.630Z,20.10
2019-05-21T23:40:04.089Z,19.07
2019-05-21T23:42:33.747Z,18.90
2019-05-21T23:45:03.404Z,23.23
2019-05-21T23:47:33.136Z,20.80
2019-05-21T23:50:03.221Z,22.70
2019-05-21T23:52:33.154Z,20.53
2019-05-21T23:55:03.171Z,22.73
2019-05-21T23:57:33.864Z,20.40
